Flinterbothnia — PBLG — position and weather

sailwx.info

Track history (hours):
 
Tides and Currents Weather Stations Pressure Air Temp Water Temp Dewpoint Dewpoint Depression Visibility Wind Speed Wind Dir Waves Ship Positions

Flinterbothnia

Last reported at 2014-Aug-28 04:28 UTC. Time now 2014-Aug-30 18:30 UTC.
Position N 57°56' E 018°21'.

Length 82 m; draft 3.7 m.

Type: Cargo ship. MMSI: 244741000.

Date/timePositionNaut miles runAvg speedWind from/ knotsBaromVisibWave heightAir tempDewpointWater temp
2014-Aug-28 04:28N 57°56' E 018°21'910.1
2014-Aug-28 03:33N 57°48' E 018°12'10 9.9
2014-Aug-28 02:32N 57°39' E 018°02'10 9.8
2014-Aug-28 01:33N 57°31' E 017°54'10 9.9
2014-Aug-28 00:33N 57°22' E 017°46'1010.2
2014-Aug-27 23:34N 57°12' E 017°39'1110.6
2014-Aug-27 22:33N 57°02' E 017°30'1110.5
2014-Aug-27 21:33N 56°53' E 017°24'8510.4
2014-Aug-27 13:20N 55°46' E 015°49'1210.9
2014-Aug-27 12:16N 55°39' E 015°32'1010.9
2014-Aug-27 11:23N 55°35' E 015°17'910.7
2014-Aug-27 10:32N 55°30' E 015°03'1310.8
2014-Aug-27 09:17N 55°24' E 014°42'910.5
2014-Aug-27 08:27N 55°18' E 014°31'2310.1
2014-Aug-27 06:11N 55°11' E 013°52'711.1
2014-Aug-27 05:32N 55°12' E 013°39'1111.0
2014-Aug-27 04:33N 55°13' E 013°21'1111.4
2014-Aug-27 03:33N 55°14' E 013°01'1110.6
2014-Aug-27 02:33N 55°17' E 012°42'9 8.8
2014-Aug-27 01:33N 55°26' E 012°40'1010.2
2014-Aug-27 00:33N 55°34' E 012°49'7 7.4
2014-Aug-26 23:33N 55°38' E 013°01'0 0.0
2014-Aug-26 22:33N 55°38' E 013°01'0 0.0
2014-Aug-26 21:33N 55°38' E 013°01'0 0.0
2014-Aug-26 20:33N 55°38' E 013°01'0 0.0
2014-Aug-26 19:33N 55°38' E 013°01'0 0.0
2014-Aug-26 18:32N 55°38' E 013°01'0 0.0
2014-Aug-26 17:32N 55°38' E 013°01'0 0.0
2014-Aug-26 16:32N 55°38' E 013°01'0 0.0
2014-Aug-26 15:32N 55°38' E 013°01'0 0.0
2014-Aug-26 14:32N 55°38' E 013°01'0 0.0
2014-Aug-26 13:32N 55°38' E 013°01'0 0.0
2014-Aug-26 12:32N 55°38' E 013°01'0 0.0
2014-Aug-26 11:32N 55°38' E 013°01'0 0.0
2014-Aug-26 10:32N 55°38' E 013°01'0 0.0
2014-Aug-26 09:32N 55°38' E 013°01'0 0.0
2014-Aug-26 08:29N 55°38' E 013°01'0 0.0
2014-Aug-26 07:32N 55°38' E 013°01'0 0.0
2014-Aug-26 06:32N 55°38' E 013°01'0 0.0
2014-Aug-26 05:32N 55°38' E 013°01'0 0.0
2014-Aug-26 04:32N 55°38' E 013°01'0 0.0
2014-Aug-26 03:32N 55°38' E 013°01'0 0.0
2014-Aug-26 02:29N 55°38' E 013°01'0 0.0
2014-Aug-26 01:32N 55°38' E 013°01'0 0.0
2014-Aug-26 00:29N 55°38' E 013°01'0 0.0
2014-Aug-25 23:32N 55°38' E 013°01'0 0.0
2014-Aug-25 22:32N 55°38' E 013°01'0 0.0
2014-Aug-25 21:32N 55°38' E 013°01'0 0.0
2014-Aug-25 20:32N 55°38' E 013°01'0 0.0
2014-Aug-25 19:32N 55°38' E 013°01'0 0.0
2014-Aug-25 18:29N 55°38' E 013°01'0 0.0
2014-Aug-25 17:34N 55°38' E 013°01'0 0.0
2014-Aug-25 16:33N 55°38' E 013°01'0 0.0
2014-Aug-25 15:33N 55°38' E 013°01'0 0.0
2014-Aug-25 14:33N 55°38' E 013°01'0 0.0
2014-Aug-25 13:33N 55°38' E 013°01'0 0.0
2014-Aug-25 12:33N 55°38' E 013°01'0 0.0
2014-Aug-25 11:33N 55°38' E 013°01'0 0.0
2014-Aug-25 10:33N 55°38' E 013°01'0 0.0
2014-Aug-25 09:34N 55°38' E 013°01'0 0.0
2014-Aug-25 08:34N 55°38' E 013°01'0 0.0
2014-Aug-25 07:34N 55°38' E 013°01'0 0.0
2014-Aug-25 06:33N 55°38' E 013°01'0 0.0
2014-Aug-25 05:33N 55°38' E 013°01'0 0.0
2014-Aug-25 04:33N 55°38' E 013°01'0 0.0
2014-Aug-25 03:34N 55°38' E 013°01'0 0.0
2014-Aug-25 02:34N 55°38' E 013°01'0 0.0
2014-Aug-25 01:34N 55°38' E 013°01'0 0.0
2014-Aug-25 00:33N 55°38' E 013°01'0 0.0
2014-Aug-24 23:34N 55°38' E 013°01'0 0.0
2014-Aug-24 22:33N 55°38' E 013°01'0 0.0
2014-Aug-24 21:34N 55°38' E 013°01'0 0.0
2014-Aug-24 20:33N 55°38' E 013°01'0 0.0
2014-Aug-24 19:33N 55°38' E 013°01'0 0.0
2014-Aug-24 18:34N 55°38' E 013°01'0 0.0
2014-Aug-24 17:33N 55°38' E 013°01'0 0.0
2014-Aug-24 16:34N 55°38' E 013°01'0 0.0
2014-Aug-24 15:34N 55°38' E 013°01'0 0.0
2014-Aug-24 14:33N 55°38' E 013°01'0 0.0
2014-Aug-24 13:33N 55°38' E 013°01'0 0.0
2014-Aug-24 12:34N 55°38' E 013°01'0 0.0
2014-Aug-24 11:34N 55°38' E 013°01'0 0.0
2014-Aug-24 10:33N 55°38' E 013°01'0 0.0
2014-Aug-24 09:33N 55°38' E 013°01'0 0.0
2014-Aug-24 08:34N 55°38' E 013°01'0 0.0
2014-Aug-24 07:33N 55°38' E 013°01'3 3.2
2014-Aug-24 06:33N 55°40' E 012°57'9 8.7
2014-Aug-24 05:34N 55°47' E 012°48'8 8.4
2014-Aug-24 04:33N 55°55' E 012°43'8 8.5
2014-Aug-24 03:34N 56°03' E 012°38'9 8.5
2014-Aug-24 02:33N 56°10' E 012°28'8 8.1
2014-Aug-24 01:33N 56°16' E 012°19'8 8.3
2014-Aug-24 00:33N 56°23' E 012°10'8 8.5
2014-Aug-23 23:34N 56°29' E 012°00'  
2014-Aug-19 16:09N 55°08' W 001°31'3 3.5
2014-Aug-19 15:24N 55°09' W 001°27'49 9.8
2014-Aug-19 10:27N 55°54' W 002°02'1011.3
2014-Aug-19 09:33N 55°59' W 002°17'1010.5
2014-Aug-19 08:33N 56°04' W 002°34'9 9.5
2014-Aug-19 07:34N 56°04' W 002°51'8 8.3
2014-Aug-19 06:33N 56°02' W 003°05'1 0.8
2014-Aug-19 05:32N 56°02' W 003°06'0 0.0
2014-Aug-19 04:32N 56°02' W 003°06'0 0.0
2014-Aug-19 03:32N 56°02' W 003°06'0 0.0
2014-Aug-19 02:32N 56°02' W 003°06'0 0.0
2014-Aug-19 01:32N 56°02' W 003°06'0 0.0
2014-Aug-19 00:32N 56°02' W 003°06'0 0.0
2014-Aug-18 23:23N 56°02' W 003°06'0 0.0
2014-Aug-18 22:23N 56°02' W 003°06'0 0.0
2014-Aug-18 21:26N 56°02' W 003°06'0 0.0
2014-Aug-18 20:32N 56°02' W 003°06'0 0.0
2014-Aug-18 19:26N 56°02' W 003°06'0 0.0
2014-Aug-18 18:26N 56°02' W 003°06'0 0.0
2014-Aug-18 17:26N 56°02' W 003°06'0 0.0
2014-Aug-18 16:28N 56°02' W 003°06'0 0.0
2014-Aug-18 15:28N 56°02' W 003°06'0 0.0
2014-Aug-18 14:28N 56°02' W 003°06'0 0.0
2014-Aug-18 13:28N 56°02' W 003°06'0 0.0
2014-Aug-18 12:28N 56°02' W 003°06'0 0.0
2014-Aug-18 11:31N 56°02' W 003°06'0 0.0
2014-Aug-18 10:31N 56°02' W 003°06'0 0.0
2014-Aug-18 09:28N 56°02' W 003°06'0 0.0
2014-Aug-18 08:31N 56°02' W 003°06'0 0.0
2014-Aug-18 07:31N 56°02' W 003°06'0 0.0
2014-Aug-18 06:31N 56°02' W 003°06'0 0.0
2014-Aug-18 05:31N 56°02' W 003°06'0 0.0
2014-Aug-18 04:31N 56°02' W 003°06'  
Track history (hours):
 
Tides and Currents Weather Stations Pressure Air Temp Water Temp Dewpoint Dewpoint Depression Visibility Wind Speed Wind Dir Waves Ship Positions

Flinterbothnia

Last reported at 2014-Aug-28 04:28 UTC. Time now 2014-Aug-30 18:30 UTC.
Position N 57°56' E 018°21'.

Length 82 m; draft 3.7 m.

Type: Cargo ship. MMSI: 244741000.

Date/timePositionNaut miles runAvg speedWind from/ knotsBaromVisibWave heightAir tempDewpointWater temp
2014-Aug-28 04:28N 57°56' E 018°21'910.1
2014-Aug-28 03:33N 57°48' E 018°12'10 9.9
2014-Aug-28 02:32N 57°39' E 018°02'10 9.8
2014-Aug-28 01:33N 57°31' E 017°54'10 9.9
2014-Aug-28 00:33N 57°22' E 017°46'1010.2
2014-Aug-27 23:34N 57°12' E 017°39'1110.6
2014-Aug-27 22:33N 57°02' E 017°30'1110.5
2014-Aug-27 21:33N 56°53' E 017°24'8510.4
2014-Aug-27 13:20N 55°46' E 015°49'1210.9
2014-Aug-27 12:16N 55°39' E 015°32'1010.9
2014-Aug-27 11:23N 55°35' E 015°17'910.7
2014-Aug-27 10:32N 55°30' E 015°03'1310.8
2014-Aug-27 09:17N 55°24' E 014°42'910.5
2014-Aug-27 08:27N 55°18' E 014°31'2310.1
2014-Aug-27 06:11N 55°11' E 013°52'711.1
2014-Aug-27 05:32N 55°12' E 013°39'1111.0
2014-Aug-27 04:33N 55°13' E 013°21'1111.4
2014-Aug-27 03:33N 55°14' E 013°01'1110.6
2014-Aug-27 02:33N 55°17' E 012°42'9 8.8
2014-Aug-27 01:33N 55°26' E 012°40'1010.2
2014-Aug-27 00:33N 55°34' E 012°49'7 7.4
2014-Aug-26 23:33N 55°38' E 013°01'0 0.0
2014-Aug-26 22:33N 55°38' E 013°01'0 0.0
2014-Aug-26 21:33N 55°38' E 013°01'0 0.0
2014-Aug-26 20:33N 55°38' E 013°01'0 0.0
2014-Aug-26 19:33N 55°38' E 013°01'0 0.0
2014-Aug-26 18:32N 55°38' E 013°01'0 0.0
2014-Aug-26 17:32N 55°38' E 013°01'0 0.0
2014-Aug-26 16:32N 55°38' E 013°01'0 0.0
2014-Aug-26 15:32N 55°38' E 013°01'0 0.0
2014-Aug-26 14:32N 55°38' E 013°01'0 0.0
2014-Aug-26 13:32N 55°38' E 013°01'0 0.0
2014-Aug-26 12:32N 55°38' E 013°01'0 0.0
2014-Aug-26 11:32N 55°38' E 013°01'0 0.0
2014-Aug-26 10:32N 55°38' E 013°01'0 0.0
2014-Aug-26 09:32N 55°38' E 013°01'0 0.0
2014-Aug-26 08:29N 55°38' E 013°01'0 0.0
2014-Aug-26 07:32N 55°38' E 013°01'0 0.0
2014-Aug-26 06:32N 55°38' E 013°01'0 0.0
2014-Aug-26 05:32N 55°38' E 013°01'0 0.0
2014-Aug-26 04:32N 55°38' E 013°01'0 0.0
2014-Aug-26 03:32N 55°38' E 013°01'0 0.0
2014-Aug-26 02:29N 55°38' E 013°01'0 0.0
2014-Aug-26 01:32N 55°38' E 013°01'0 0.0
2014-Aug-26 00:29N 55°38' E 013°01'0 0.0
2014-Aug-25 23:32N 55°38' E 013°01'0 0.0
2014-Aug-25 22:32N 55°38' E 013°01'0 0.0
2014-Aug-25 21:32N 55°38' E 013°01'0 0.0
2014-Aug-25 20:32N 55°38' E 013°01'0 0.0
2014-Aug-25 19:32N 55°38' E 013°01'0 0.0
2014-Aug-25 18:29N 55°38' E 013°01'0 0.0
2014-Aug-25 17:34N 55°38' E 013°01'0 0.0
2014-Aug-25 16:33N 55°38' E 013°01'0 0.0
2014-Aug-25 15:33N 55°38' E 013°01'0 0.0
2014-Aug-25 14:33N 55°38' E 013°01'0 0.0
2014-Aug-25 13:33N 55°38' E 013°01'0 0.0
2014-Aug-25 12:33N 55°38' E 013°01'0 0.0
2014-Aug-25 11:33N 55°38' E 013°01'0 0.0
2014-Aug-25 10:33N 55°38' E 013°01'0 0.0
2014-Aug-25 09:34N 55°38' E 013°01'0 0.0
2014-Aug-25 08:34N 55°38' E 013°01'0 0.0
2014-Aug-25 07:34N 55°38' E 013°01'0 0.0
2014-Aug-25 06:33N 55°38' E 013°01'0 0.0
2014-Aug-25 05:33N 55°38' E 013°01'0 0.0
2014-Aug-25 04:33N 55°38' E 013°01'0 0.0
2014-Aug-25 03:34N 55°38' E 013°01'0 0.0
2014-Aug-25 02:34N 55°38' E 013°01'0 0.0
2014-Aug-25 01:34N 55°38' E 013°01'0 0.0
2014-Aug-25 00:33N 55°38' E 013°01'0 0.0
2014-Aug-24 23:34N 55°38' E 013°01'0 0.0
2014-Aug-24 22:33N 55°38' E 013°01'0 0.0
2014-Aug-24 21:34N 55°38' E 013°01'0 0.0
2014-Aug-24 20:33N 55°38' E 013°01'0 0.0
2014-Aug-24 19:33N 55°38' E 013°01'0 0.0
2014-Aug-24 18:34N 55°38' E 013°01'0 0.0
2014-Aug-24 17:33N 55°38' E 013°01'0 0.0
2014-Aug-24 16:34N 55°38' E 013°01'0 0.0
2014-Aug-24 15:34N 55°38' E 013°01'0 0.0
2014-Aug-24 14:33N 55°38' E 013°01'0 0.0
2014-Aug-24 13:33N 55°38' E 013°01'0 0.0
2014-Aug-24 12:34N 55°38' E 013°01'0 0.0
2014-Aug-24 11:34N 55°38' E 013°01'0 0.0
2014-Aug-24 10:33N 55°38' E 013°01'0 0.0
2014-Aug-24 09:33N 55°38' E 013°01'0 0.0
2014-Aug-24 08:34N 55°38' E 013°01'0 0.0
2014-Aug-24 07:33N 55°38' E 013°01'3 3.2
2014-Aug-24 06:33N 55°40' E 012°57'9 8.7
2014-Aug-24 05:34N 55°47' E 012°48'8 8.4
2014-Aug-24 04:33N 55°55' E 012°43'8 8.5
2014-Aug-24 03:34N 56°03' E 012°38'9 8.5
2014-Aug-24 02:33N 56°10' E 012°28'8 8.1
2014-Aug-24 01:33N 56°16' E 012°19'8 8.3
2014-Aug-24 00:33N 56°23' E 012°10'8 8.5
2014-Aug-23 23:34N 56°29' E 012°00'  
2014-Aug-19 16:09N 55°08' W 001°31'3 3.5
2014-Aug-19 15:24N 55°09' W 001°27'49 9.8
2014-Aug-19 10:27N 55°54' W 002°02'1011.3
2014-Aug-19 09:33N 55°59' W 002°17'1010.5
2014-Aug-19 08:33N 56°04' W 002°34'9 9.5
2014-Aug-19 07:34N 56°04' W 002°51'8 8.3
2014-Aug-19 06:33N 56°02' W 003°05'1 0.8
2014-Aug-19 05:32N 56°02' W 003°06'0 0.0
2014-Aug-19 04:32N 56°02' W 003°06'0 0.0
2014-Aug-19 03:32N 56°02' W 003°06'0 0.0
2014-Aug-19 02:32N 56°02' W 003°06'0 0.0
2014-Aug-19 01:32N 56°02' W 003°06'0 0.0
2014-Aug-19 00:32N 56°02' W 003°06'0 0.0
2014-Aug-18 23:23N 56°02' W 003°06'0 0.0
2014-Aug-18 22:23N 56°02' W 003°06'0 0.0
2014-Aug-18 21:26N 56°02' W 003°06'0 0.0
2014-Aug-18 20:32N 56°02' W 003°06'0 0.0
2014-Aug-18 19:26N 56°02' W 003°06'0 0.0
2014-Aug-18 18:26N 56°02' W 003°06'0 0.0
2014-Aug-18 17:26N 56°02' W 003°06'0 0.0
2014-Aug-18 16:28N 56°02' W 003°06'0 0.0
2014-Aug-18 15:28N 56°02' W 003°06'0 0.0
2014-Aug-18 14:28N 56°02' W 003°06'0 0.0
2014-Aug-18 13:28N 56°02' W 003°06'0 0.0
2014-Aug-18 12:28N 56°02' W 003°06'0 0.0
2014-Aug-18 11:31N 56°02' W 003°06'0 0.0
2014-Aug-18 10:31N 56°02' W 003°06'0 0.0
2014-Aug-18 09:28N 56°02' W 003°06'0 0.0
2014-Aug-18 08:31N 56°02' W 003°06'0 0.0
2014-Aug-18 07:31N 56°02' W 003°06'0 0.0
2014-Aug-18 06:31N 56°02' W 003°06'0 0.0
2014-Aug-18 05:31N 56°02' W 003°06'0 0.0
2014-Aug-18 04:31N 56°02' W 003°06'  

Dump ship's entire track history